Time;durP1;ratioP1;P1;durP2;ratioP2;P2;SDS_P1;SDS_P2;PMS_P1;PMS_P2;Temp;Humidity;BMP_temperature;BMP_pressure;BME280_temperature;BME280_humidity;BME280_pressure;Samples;Min_cycle;Max_cycle;Signal;HPM_P1;HPM_P2
2023/09/12 00:01:21;;;;;;;11.65;7.60;;;;;;;;;;5079928;28;20048;-66
2023/09/12 00:03:50;;;;;;;17.90;8.50;;;;;;;;;;5073698;28;20040;-68
2023/09/12 00:06:18;;;;;;;12.88;8.70;;;;;;;;;;5079308;28;20049;-67
2023/09/12 00:08:47;;;;;;;14.95;8.95;;;;;;;;;;5076946;28;20481;-67
2023/09/12 00:11:17;;;;;;;13.55;8.40;;;;;;;;;;5080201;28;20044;-65
2023/09/12 00:13:45;;;;;;;17.70;9.50;;;;;;;;;;5074995;28;20507;-70
2023/09/12 00:16:14;;;;;;;15.35;8.15;;;;;;;;;;5079298;28;20040;-65
2023/09/12 00:18:42;;;;;;;12.60;7.65;;;;;;;;;;5081144;28;20067;-67
2023/09/12 00:21:11;;;;;;;14.27;8.10;;;;;;;;;;5080593;28;20048;-65
2023/09/12 00:23:40;;;;;;;12.77;8.35;;;;;;;;;;5079956;28;20067;-66
2023/09/12 00:26:08;;;;;;;13.07;8.13;;;;;;;;;;5083150;28;20525;-66
2023/09/12 00:28:38;;;;;;;12.25;8.10;;;;;;;;;;5074754;28;20520;-67
2023/09/12 00:31:07;;;;;;;11.32;7.50;;;;;;;;;;5079804;28;20063;-66
2023/09/12 00:33:35;;;;;;;11.32;7.53;;;;;;;;;;5080508;28;20052;-65
2023/09/12 00:36:04;;;;;;;14.95;7.57;;;;;;;;;;5084043;28;20511;-67
2023/09/12 00:38:33;;;;;;;12.68;8.23;;;;;;;;;;5077185;28;20066;-67
2023/09/12 00:41:02;;;;;;;13.57;8.18;;;;;;;;;;5083891;28;20079;-65
2023/09/12 00:43:30;;;;;;;11.85;7.88;;;;;;;;;;5078099;28;20089;-67
2023/09/12 00:46:00;;;;;;;13.10;7.68;;;;;;;;;;5080073;28;20488;-66
2023/09/12 00:48:28;;;;;;;16.13;8.20;;;;;;;;;;5080822;28;20052;-67
2023/09/12 00:50:57;;;;;;;13.77;8.30;;;;;;;;;;5082287;28;21082;-65
2023/09/12 00:53:26;;;;;;;12.20;7.82;;;;;;;;;;5075013;28;20105;-67
2023/09/12 00:55:57;;;;;;;13.38;7.72;;;;;;;;;;5076766;28;20097;-66
2023/09/12 00:58:26;;;;;;;15.63;8.90;;;;;;;;;;5074472;28;20113;-70
2023/09/12 01:00:54;;;;;;;11.63;8.25;;;;;;;;;;5074116;28;20132;-70
2023/09/12 01:03:24;;;;;;;14.43;8.75;;;;;;;;;;5074718;28;20048;-66
2023/09/12 01:05:53;;;;;;;12.75;8.07;;;;;;;;;;5076259;28;20138;-66
2023/09/12 01:08:21;;;;;;;14.57;8.50;;;;;;;;;;5075073;28;20142;-67
2023/09/12 01:10:51;;;;;;;14.13;8.45;;;;;;;;;;5081051;28;20526;-65
2023/09/12 01:13:20;;;;;;;14.38;8.30;;;;;;;;;;5071721;28;20102;-65
2023/09/12 01:15:48;;;;;;;16.27;7.88;;;;;;;;;;5078956;28;20168;-66
2023/09/12 01:18:16;;;;;;;11.93;8.07;;;;;;;;;;5074512;28;20793;-68
2023/09/12 01:20:55;;;;;;;11.63;7.63;;;;;;;;;;5074156;28;20044;-65
2023/09/12 01:23:34;;;;;;;12.57;7.30;;;;;;;;;;5073653;28;20048;-70
2023/09/12 01:26:16;;;;;;;15.93;8.82;;;;;;;;;;5077627;28;20471;-66
2023/09/12 01:28:46;;;;;;;12.07;7.57;;;;;;;;;;5075257;28;20173;-65
2023/09/12 01:31:17;;;;;;;11.90;7.95;;;;;;;;;;5075990;28;20053;-65
2023/09/12 01:33:45;;;;;;;11.93;7.72;;;;;;;;;;5075772;28;20528;-65
2023/09/12 01:36:13;;;;;;;12.45;7.18;;;;;;;;;;5076728;28;20465;-68
2023/09/12 01:38:42;;;;;;;11.15;7.72;;;;;;;;;;5079518;28;20055;-66
2023/09/12 01:41:11;;;;;;;14.23;8.55;;;;;;;;;;5082384;28;20048;-66
2023/09/12 01:43:40;;;;;;;11.30;7.43;;;;;;;;;;5083331;28;20079;-65
2023/09/12 01:46:10;;;;;;;11.98;7.82;;;;;;;;;;5085399;28;20485;-65
2023/09/12 01:48:39;;;;;;;11.93;7.80;;;;;;;;;;5082613;28;20181;-67
2023/09/12 01:51:08;;;;;;;12.25;7.80;;;;;;;;;;5081082;28;20051;-69
2023/09/12 01:53:37;;;;;;;12.63;7.95;;;;;;;;;;5083110;28;20125;-65
2023/09/12 01:56:05;;;;;;;13.20;8.18;;;;;;;;;;5075475;28;20175;-66
2023/09/12 01:58:34;;;;;;;13.20;8.40;;;;;;;;;;5082785;28;20097;-66
2023/09/12 02:01:02;;;;;;;13.95;8.18;;;;;;;;;;5080759;28;20106;-66
2023/09/12 02:03:32;;;;;;;13.98;7.45;;;;;;;;;;5076685;28;20047;-68
2023/09/12 02:06:00;;;;;;;10.75;7.68;;;;;;;;;;5077415;28;20044;-66
2023/09/12 02:08:29;;;;;;;13.45;7.95;;;;;;;;;;5078569;28;20048;-68
2023/09/12 02:10:57;;;;;;;11.75;7.32;;;;;;;;;;5076746;28;20106;-66
2023/09/12 02:13:25;;;;;;;11.15;7.53;;;;;;;;;;5083465;28;20051;-65
2023/09/12 02:16:00;;;;;;;9.95;7.00;;;;;;;;;;5076597;28;20047;-66
2023/09/12 02:18:28;;;;;;;13.18;7.13;;;;;;;;;;5083524;28;20044;-66
2023/09/12 02:20:59;;;;;;;13.55;7.07;;;;;;;;;;5077498;28;20045;-68
2023/09/12 02:23:28;;;;;;;10.63;7.03;;;;;;;;;;5081871;28;20493;-69
2023/09/12 02:25:57;;;;;;;10.23;6.70;;;;;;;;;;5077793;28;20098;-66
2023/09/12 02:28:25;;;;;;;13.40;7.35;;;;;;;;;;5080199;28;20051;-66
2023/09/12 02:30:54;;;;;;;14.40;7.40;;;;;;;;;;5080920;28;20124;-66
2023/09/12 02:33:22;;;;;;;13.15;6.97;;;;;;;;;;5084134;28;20054;-67
2023/09/12 02:35:51;;;;;;;13.38;8.15;;;;;;;;;;5082013;28;20052;-67
2023/09/12 02:38:21;;;;;;;11.30;7.32;;;;;;;;;;5085394;28;20447;-67
2023/09/12 02:40:49;;;;;;;10.70;7.45;;;;;;;;;;5080862;28;20071;-66
2023/09/12 02:43:17;;;;;;;10.93;6.82;;;;;;;;;;5083593;28;20807;-66
2023/09/12 02:45:46;;;;;;;10.88;7.13;;;;;;;;;;5083488;28;20044;-66
2023/09/12 02:48:14;;;;;;;10.52;7.65;;;;;;;;;;5082280;28;20044;-66
2023/09/12 02:50:42;;;;;;;12.70;7.38;;;;;;;;;;5080163;28;20158;-68
2023/09/12 02:53:11;;;;;;;11.98;7.22;;;;;;;;;;5080668;28;20079;-68
2023/09/12 02:55:44;;;;;;;12.82;7.22;;;;;;;;;;5079795;28;20094;-66
2023/09/12 02:58:12;;;;;;;11.38;7.47;;;;;;;;;;5076018;28;20560;-68
2023/09/12 03:00:40;;;;;;;10.88;7.32;;;;;;;;;;5079692;28;20067;-67
2023/09/12 03:03:09;;;;;;;13.80;8.57;;;;;;;;;;5080813;28;20048;-69
2023/09/12 03:05:38;;;;;;;12.90;7.40;;;;;;;;;;5084100;28;20417;-67
2023/09/12 03:08:07;;;;;;;10.85;7.45;;;;;;;;;;5078224;28;20059;-69
2023/09/12 03:10:35;;;;;;;11.43;7.22;;;;;;;;;;5077182;28;20113;-68
2023/09/12 03:13:05;;;;;;;13.32;7.32;;;;;;;;;;5080409;28;20522;-66
2023/09/12 03:15:38;;;;;;;11.82;7.38;;;;;;;;;;5081577;28;20133;-65
2023/09/12 03:18:06;;;;;;;11.60;8.00;;;;;;;;;;5079977;28;20121;-69
2023/09/12 03:20:39;;;;;;;9.65;6.75;;;;;;;;;;5079940;28;20345;-65
2023/09/12 03:23:07;;;;;;;11.13;6.88;;;;;;;;;;5079987;28;20530;-66
2023/09/12 03:25:37;;;;;;;11.90;7.50;;;;;;;;;;5081030;28;20521;-65
2023/09/12 03:28:07;;;;;;;11.95;6.75;;;;;;;;;;5076333;28;20131;-68
2023/09/12 03:30:36;;;;;;;11.48;6.57;;;;;;;;;;5074959;28;20040;-66
2023/09/12 03:33:05;;;;;;;12.95;6.40;;;;;;;;;;5078629;28;20048;-68
2023/09/12 03:35:34;;;;;;;11.50;7.30;;;;;;;;;;5076316;28;20393;-67
2023/09/12 03:38:03;;;;;;;12.50;6.93;;;;;;;;;;5075230;28;20127;-66
2023/09/12 03:40:32;;;;;;;12.52;6.97;;;;;;;;;;5079147;28;20501;-65
2023/09/12 03:43:00;;;;;;;10.77;7.20;;;;;;;;;;5079496;28;20485;-65
2023/09/12 03:45:30;;;;;;;11.48;6.43;;;;;;;;;;5085208;28;20044;-65
2023/09/12 03:47:58;;;;;;;13.27;6.70;;;;;;;;;;5077937;28;20047;-67
2023/09/12 03:50:27;;;;;;;10.55;6.78;;;;;;;;;;5076648;28;20040;-66
2023/09/12 03:52:55;;;;;;;12.63;6.80;;;;;;;;;;5079481;28;20068;-71
2023/09/12 03:55:24;;;;;;;10.68;6.53;;;;;;;;;;5081993;28;20083;-65
2023/09/12 03:57:52;;;;;;;10.95;6.82;;;;;;;;;;5081408;28;20089;-65
2023/09/12 04:00:20;;;;;;;9.20;6.97;;;;;;;;;;5082613;28;20052;-65
2023/09/12 04:02:50;;;;;;;11.65;7.28;;;;;;;;;;5074261;28;20048;-65
2023/09/12 04:05:19;;;;;;;14.40;7.32;;;;;;;;;;5075394;28;20546;-66
2023/09/12 04:07:47;;;;;;;11.90;6.65;;;;;;;;;;5079597;28;20124;-67
2023/09/12 04:10:15;;;;;;;11.13;6.55;;;;;;;;;;5079250;28;21569;-65
2023/09/12 04:12:44;;;;;;;11.18;6.63;;;;;;;;;;5079152;28;20125;-66
2023/09/12 04:15:12;;;;;;;11.20;6.25;;;;;;;;;;5082956;28;20044;-65
2023/09/12 04:17:41;;;;;;;8.95;6.15;;;;;;;;;;5080481;28;20043;-65
2023/09/12 04:20:13;;;;;;;12.02;7.03;;;;;;;;;;5080022;28;20055;-66
2023/09/12 04:22:43;;;;;;;10.55;6.82;;;;;;;;;;5082424;28;20048;-64
2023/09/12 04:25:12;;;;;;;13.40;7.10;;;;;;;;;;5078235;28;20133;-65
2023/09/12 04:27:40;;;;;;;9.07;6.32;;;;;;;;;;5075168;28;20102;-66
2023/09/12 04:30:09;;;;;;;9.15;6.53;;;;;;;;;;5078921;28;20116;-66
2023/09/12 04:32:38;;;;;;;10.55;5.47;;;;;;;;;;5071671;28;20059;-66
2023/09/12 04:35:07;;;;;;;10.13;6.57;;;;;;;;;;5070851;28;20147;-66
2023/09/12 04:37:37;;;;;;;13.50;7.10;;;;;;;;;;5077055;28;20555;-65
2023/09/12 04:40:06;;;;;;;12.25;6.70;;;;;;;;;;5074767;28;20481;-65
2023/09/12 04:42:34;;;;;;;15.18;7.47;;;;;;;;;;5080960;28;20454;-65
2023/09/12 04:45:03;;;;;;;14.45;7.30;;;;;;;;;;5071444;28;20044;-67
2023/09/12 04:47:32;;;;;;;11.52;6.70;;;;;;;;;;5083789;28;20044;-65
2023/09/12 04:50:01;;;;;;;12.32;6.50;;;;;;;;;;5074709;28;20439;-65
2023/09/12 04:52:30;;;;;;;11.75;7.32;;;;;;;;;;5070004;28;20128;-65
2023/09/12 04:55:03;;;;;;;12.57;6.50;;;;;;;;;;5074618;28;20039;-70
2023/09/12 04:57:32;;;;;;;13.70;6.85;;;;;;;;;;5076598;28;20048;-66
2023/09/12 05:00:01;;;;;;;11.13;6.47;;;;;;;;;;5076162;28;20047;-67
2023/09/12 05:02:30;;;;;;;14.15;6.50;;;;;;;;;;5082519;28;20048;-65
2023/09/12 05:04:58;;;;;;;11.95;6.68;;;;;;;;;;5077077;28;20040;-65
2023/09/12 05:07:26;;;;;;;13.82;6.97;;;;;;;;;;5074639;28;20489;-64
2023/09/12 05:09:55;;;;;;;14.43;6.68;;;;;;;;;;5078017;28;20141;-65
2023/09/12 05:12:25;;;;;;;15.35;7.40;;;;;;;;;;5076819;28;20562;-64
2023/09/12 05:14:53;;;;;;;9.38;6.07;;;;;;;;;;5087805;28;20048;-66
2023/09/12 05:17:21;;;;;;;13.23;7.13;;;;;;;;;;5079582;28;20048;-64
2023/09/12 05:19:50;;;;;;;9.40;6.68;;;;;;;;;;5078075;28;20154;-68
2023/09/12 05:22:18;;;;;;;9.18;6.00;;;;;;;;;;5074670;28;20066;-68
2023/09/12 05:24:47;;;;;;;15.90;6.40;;;;;;;;;;5079826;28;20874;-65
2023/09/12 05:27:15;;;;;;;12.95;7.28;;;;;;;;;;5080729;28;20444;-64
2023/09/12 05:29:45;;;;;;;13.85;7.05;;;;;;;;;;5083552;28;20079;-65
2023/09/12 05:32:15;;;;;;;10.75;6.55;;;;;;;;;;5078394;28;20048;-68
2023/09/12 05:34:45;;;;;;;11.95;6.75;;;;;;;;;;5079218;28;20128;-68
2023/09/12 05:37:13;;;;;;;9.65;6.47;;;;;;;;;;5082761;28;20048;-65
2023/09/12 05:39:41;;;;;;;10.45;6.85;;;;;;;;;;5084051;28;20067;-64
2023/09/12 05:42:10;;;;;;;11.07;6.68;;;;;;;;;;5085072;28;20510;-65
2023/09/12 05:44:39;;;;;;;9.68;6.07;;;;;;;;;;5087323;28;20076;-65
2023/09/12 05:47:08;;;;;;;8.98;6.30;;;;;;;;;;5083137;28;20425;-64
2023/09/12 05:49:37;;;;;;;9.77;6.38;;;;;;;;;;5084240;28;20560;-65
2023/09/12 05:52:05;;;;;;;9.00;5.75;;;;;;;;;;5086389;28;20051;-65
2023/09/12 05:54:34;;;;;;;9.55;6.38;;;;;;;;;;5085775;28;20041;-65
2023/09/12 05:57:03;;;;;;;12.80;6.18;;;;;;;;;;5086478;28;20036;-69
2023/09/12 05:59:32;;;;;;;9.80;5.95;;;;;;;;;;5078904;28;20067;-66
2023/09/12 06:02:02;;;;;;;13.57;6.22;;;;;;;;;;5078842;28;20523;-65
2023/09/12 06:04:32;;;;;;;17.73;7.30;;;;;;;;;;5077026;28;20151;-65
2023/09/12 06:07:01;;;;;;;11.73;6.30;;;;;;;;;;5082139;28;20177;-64
2023/09/12 06:09:29;;;;;;;10.43;6.68;;;;;;;;;;5080665;28;20056;-65
2023/09/12 06:11:57;;;;;;;12.48;5.95;;;;;;;;;;5085035;28;20052;-65
2023/09/12 06:14:26;;;;;;;9.45;6.30;;;;;;;;;;5083276;28;20044;-65
2023/09/12 06:16:54;;;;;;;11.57;6.47;;;;;;;;;;5083838;28;20097;-64
2023/09/12 06:19:22;;;;;;;10.43;6.68;;;;;;;;;;5084482;28;20459;-66
2023/09/12 06:21:53;;;;;;;12.55;6.07;;;;;;;;;;5079567;28;20048;-67
2023/09/12 06:24:22;;;;;;;10.63;6.90;;;;;;;;;;5085070;28;20044;-65
2023/09/12 06:26:50;;;;;;;11.57;6.60;;;;;;;;;;5085901;28;20063;-64
2023/09/12 06:29:19;;;;;;;9.82;6.80;;;;;;;;;;5087149;28;20058;-66
2023/09/12 06:31:48;;;;;;;11.55;6.90;;;;;;;;;;5084345;28;20132;-66
2023/09/12 06:34:16;;;;;;;12.40;7.47;;;;;;;;;;5085758;28;20049;-68
2023/09/12 06:36:45;;;;;;;16.77;7.28;;;;;;;;;;5083097;28;20409;-65
2023/09/12 06:39:15;;;;;;;11.20;7.35;;;;;;;;;;5083610;28;20327;-64
2023/09/12 06:41:43;;;;;;;11.27;7.13;;;;;;;;;;5083065;28;20059;-64
2023/09/12 06:44:12;;;;;;;13.20;6.78;;;;;;;;;;5082199;28;20047;-64
2023/09/12 06:46:40;;;;;;;11.10;6.97;;;;;;;;;;5081525;28;20068;-64
2023/09/12 06:49:09;;;;;;;11.45;7.30;;;;;;;;;;5086221;28;20141;-65
2023/09/12 06:51:37;;;;;;;13.77;7.40;;;;;;;;;;5084213;28;20506;-64
2023/09/12 06:54:06;;;;;;;15.13;7.25;;;;;;;;;;5080778;28;20063;-68
2023/09/12 06:56:37;;;;;;;12.93;7.40;;;;;;;;;;5081926;28;20109;-69
2023/09/12 06:59:06;;;;;;;14.38;7.50;;;;;;;;;;5085739;28;20100;-66
2023/09/12 07:01:35;;;;;;;13.93;8.02;;;;;;;;;;5087517;28;20063;-67
2023/09/12 07:04:03;;;;;;;14.70;8.15;;;;;;;;;;5087575;28;20131;-65
2023/09/12 07:06:32;;;;;;;15.75;8.93;;;;;;;;;;5080886;28;20466;-64
2023/09/12 07:09:02;;;;;;;13.95;8.23;;;;;;;;;;5078004;28;20771;-64
2023/09/12 07:11:31;;;;;;;12.52;7.70;;;;;;;;;;5081408;28;20075;-65
2023/09/12 07:14:01;;;;;;;14.07;7.57;;;;;;;;;;5085956;28;20070;-64
2023/09/12 07:16:29;;;;;;;12.57;7.72;;;;;;;;;;5083191;28;20056;-64
2023/09/12 07:18:58;;;;;;;11.90;7.53;;;;;;;;;;5082011;28;20067;-65
2023/09/12 07:21:26;;;;;;;14.02;8.02;;;;;;;;;;5079087;28;20128;-68
2023/09/12 07:23:54;;;;;;;14.13;8.70;;;;;;;;;;5083051;28;20095;-65
2023/09/12 07:26:23;;;;;;;14.35;8.35;;;;;;;;;;5083827;28;20052;-64
2023/09/12 07:28:55;;;;;;;13.68;8.13;;;;;;;;;;5079148;28;20044;-66
2023/09/12 07:31:25;;;;;;;14.00;8.55;;;;;;;;;;5079801;28;20055;-65
2023/09/12 07:33:53;;;;;;;19.55;8.68;;;;;;;;;;5080749;28;20068;-64
2023/09/12 07:36:22;;;;;;;14.00;8.15;;;;;;;;;;5081007;28;20497;-66
2023/09/12 07:38:50;;;;;;;11.65;7.60;;;;;;;;;;5084297;28;20059;-65
2023/09/12 07:41:19;;;;;;;15.73;7.95;;;;;;;;;;5093268;28;20040;-64
2023/09/12 07:43:47;;;;;;;14.02;8.30;;;;;;;;;;5079006;28;20048;-64
2023/09/12 07:46:16;;;;;;;17.90;8.50;;;;;;;;;;5082096;28;20048;-64
2023/09/12 07:48:46;;;;;;;14.25;8.35;;;;;;;;;;5081869;28;20044;-66
2023/09/12 07:51:15;;;;;;;13.82;7.28;;;;;;;;;;5076709;28;20044;-64
2023/09/12 07:53:43;;;;;;;12.40;7.47;;;;;;;;;;5078737;28;20096;-64
2023/09/12 07:56:12;;;;;;;12.57;8.07;;;;;;;;;;5085525;28;20040;-65
2023/09/12 07:58:41;;;;;;;12.00;7.63;;;;;;;;;;5078052;28;20048;-63
2023/09/12 08:01:10;;;;;;;15.25;8.57;;;;;;;;;;5082230;28;20761;-65
2023/09/12 08:03:39;;;;;;;13.68;8.07;;;;;;;;;;5083980;28;20075;-68
2023/09/12 08:06:09;;;;;;;16.83;7.72;;;;;;;;;;5074773;28;20052;-65
2023/09/12 08:08:38;;;;;;;11.35;6.85;;;;;;;;;;5081821;28;20054;-68
2023/09/12 08:11:06;;;;;;;11.90;7.68;;;;;;;;;;5077827;28;20508;-64
2023/09/12 08:13:35;;;;;;;18.60;8.48;;;;;;;;;;5084824;28;20687;-64
2023/09/12 08:16:03;;;;;;;11.98;7.15;;;;;;;;;;5082073;28;20036;-65
2023/09/12 08:18:32;;;;;;;15.10;7.72;;;;;;;;;;5079480;28;20141;-71
2023/09/12 08:21:01;;;;;;;16.65;7.60;;;;;;;;;;5079156;28;20052;-65
2023/09/12 08:23:30;;;;;;;15.38;7.63;;;;;;;;;;5082858;28;20093;-65
2023/09/12 08:25:59;;;;;;;13.00;8.20;;;;;;;;;;5082008;28;20036;-64
2023/09/12 08:28:28;;;;;;;19.67;8.25;;;;;;;;;;5080766;28;20044;-65
2023/09/12 08:30:56;;;;;;;18.85;8.38;;;;;;;;;;5076610;28;20348;-64
2023/09/12 08:33:25;;;;;;;13.48;8.55;;;;;;;;;;5079000;28;20048;-65
2023/09/12 08:35:54;;;;;;;18.23;8.30;;;;;;;;;;5078106;28;20504;-65
2023/09/12 08:38:22;;;;;;;12.35;7.57;;;;;;;;;;5076859;28;20059;-66
2023/09/12 08:40:53;;;;;;;16.45;7.75;;;;;;;;;;5080143;28;20568;-64
2023/09/12 08:43:22;;;;;;;14.65;7.72;;;;;;;;;;5077275;28;20040;-67
2023/09/12 08:45:51;;;;;;;12.55;7.70;;;;;;;;;;5079679;28;20052;-64
2023/09/12 08:48:21;;;;;;;10.95;6.90;;;;;;;;;;5076979;28;20055;-64
2023/09/12 08:50:53;;;;;;;16.15;7.50;;;;;;;;;;5071796;28;20045;-68
2023/09/12 08:53:22;;;;;;;14.70;7.50;;;;;;;;;;5071848;28;20087;-66
2023/09/12 08:55:53;;;;;;;15.25;7.20;;;;;;;;;;5074917;28;20607;-64
2023/09/12 08:58:22;;;;;;;12.38;7.07;;;;;;;;;;5075474;28;20523;-65
2023/09/12 09:00:51;;;;;;;17.13;7.85;;;;;;;;;;5075566;28;20497;-63
2023/09/12 09:03:21;;;;;;;11.23;7.28;;;;;;;;;;5078394;28;20056;-65
2023/09/12 09:05:50;;;;;;;15.80;7.05;;;;;;;;;;5076326;28;20149;-65
2023/09/12 09:08:19;;;;;;;11.13;7.13;;;;;;;;;;5077330;28;20047;-66
2023/09/12 09:10:57;;;;;;;15.13;7.00;;;;;;;;;;5079063;28;20044;-64
2023/09/12 09:13:26;;;;;;;10.73;6.75;;;;;;;;;;5075952;28;20041;-64
2023/09/12 09:16:11;;;;;;;11.02;7.18;;;;;;;;;;5073736;28;20133;-65
2023/09/12 09:18:55;;;;;;;10.57;7.10;;;;;;;;;;5074378;28;20041;-64
2023/09/12 09:21:25;;;;;;;11.85;6.40;;;;;;;;;;5073989;28;20049;-64
2023/09/12 09:23:54;;;;;;;10.48;6.60;;;;;;;;;;5072810;28;20044;-70
2023/09/12 09:26:24;;;;;;;10.15;6.50;;;;;;;;;;5073800;28;20056;-65
2023/09/12 09:29:05;;;;;;;10.05;6.55;;;;;;;;;;5073903;28;20052;-66
2023/09/12 09:31:34;;;;;;;9.50;5.90;;;;;;;;;;5074827;28;20075;-67
2023/09/12 09:34:03;;;;;;;10.18;6.65;;;;;;;;;;5079800;28;20051;-65
2023/09/12 09:36:33;;;;;;;8.40;5.95;;;;;;;;;;5080444;28;20055;-66
2023/09/12 09:39:04;;;;;;;9.40;6.20;;;;;;;;;;5082792;28;20072;-65
2023/09/12 09:41:34;;;;;;;10.18;6.72;;;;;;;;;;5079461;28;20048;-66
2023/09/12 09:44:04;;;;;;;8.23;5.80;;;;;;;;;;5082925;28;20048;-64
2023/09/12 09:46:33;;;;;;;11.57;6.78;;;;;;;;;;5077375;28;20040;-70
2023/09/12 09:49:01;;;;;;;12.75;6.18;;;;;;;;;;5087200;28;20047;-66
2023/09/12 09:51:32;;;;;;;11.68;6.68;;;;;;;;;;5078501;28;20493;-64
2023/09/12 09:54:01;;;;;;;10.23;6.55;;;;;;;;;;5079208;28;20063;-71
2023/09/12 09:56:30;;;;;;;12.65;6.28;;;;;;;;;;5076949;28;20055;-67
2023/09/12 09:58:59;;;;;;;8.23;5.95;;;;;;;;;;5080690;28;20040;-66
2023/09/12 10:01:29;;;;;;;8.15;6.00;;;;;;;;;;5081828;28;20442;-65
2023/09/12 10:03:59;;;;;;;9.32;6.00;;;;;;;;;;5082664;28;20056;-66
2023/09/12 10:06:29;;;;;;;8.63;5.88;;;;;;;;;;5080494;28;20051;-64
2023/09/12 10:08:59;;;;;;;8.80;6.28;;;;;;;;;;5080885;28;20067;-66
2023/09/12 10:11:29;;;;;;;9.40;6.10;;;;;;;;;;5086427;28;20055;-65
2023/09/12 10:14:01;;;;;;;7.03;5.88;;;;;;;;;;5083372;28;20068;-66
2023/09/12 10:16:32;;;;;;;7.72;5.60;;;;;;;;;;5082662;28;20097;-65
2023/09/12 10:19:01;;;;;;;8.20;5.68;;;;;;;;;;5082363;28;20440;-64
2023/09/12 10:21:31;;;;;;;7.95;5.25;;;;;;;;;;5084613;28;20739;-72
2023/09/12 10:24:00;;;;;;;11.40;6.25;;;;;;;;;;5082443;28;20632;-65
2023/09/12 10:26:29;;;;;;;10.45;5.95;;;;;;;;;;5088087;28;20047;-65
2023/09/12 10:29:01;;;;;;;6.75;4.55;;;;;;;;;;5083271;28;20036;-67
2023/09/12 10:31:29;;;;;;;8.57;5.20;;;;;;;;;;5083418;28;20044;-66
2023/09/12 10:33:59;;;;;;;6.78;5.30;;;;;;;;;;5083766;28;20147;-65
2023/09/12 10:36:27;;;;;;;7.63;5.50;;;;;;;;;;5082187;28;20531;-65
2023/09/12 10:38:56;;;;;;;7.85;5.82;;;;;;;;;;5081626;28;20051;-65
2023/09/12 10:41:25;;;;;;;7.78;5.63;;;;;;;;;;5079833;28;20044;-71
2023/09/12 10:43:54;;;;;;;9.18;5.75;;;;;;;;;;5083177;28;20177;-64
2023/09/12 10:46:24;;;;;;;7.00;5.13;;;;;;;;;;5083547;28;20085;-64
2023/09/12 10:48:53;;;;;;;6.82;5.05;;;;;;;;;;5086102;28;20090;-64
2023/09/12 10:51:22;;;;;;;6.93;5.45;;;;;;;;;;5083417;28;20477;-66
2023/09/12 10:53:52;;;;;;;7.80;5.90;;;;;;;;;;5080089;28;20055;-66
2023/09/12 10:56:21;;;;;;;7.35;5.60;;;;;;;;;;5085215;28;20352;-64
2023/09/12 10:59:09;;;;;;;6.47;4.93;;;;;;;;;;5085129;28;20236;-64
2023/09/12 11:01:39;;;;;;;8.65;5.68;;;;;;;;;;5080585;28;20047;-66
2023/09/12 11:04:28;;;;;;;8.00;5.32;;;;;;;;;;5082174;28;20135;-68
2023/09/12 11:06:58;;;;;;;7.65;4.85;;;;;;;;;;5083016;28;20047;-65
2023/09/12 11:09:27;;;;;;;7.97;5.45;;;;;;;;;;5079052;28;20048;-65
2023/09/12 11:11:57;;;;;;;8.55;5.82;;;;;;;;;;5081300;28;20059;-64
2023/09/12 11:14:26;;;;;;;7.70;5.20;;;;;;;;;;5084623;28;20553;-67
2023/09/12 11:17:13;;;;;;;7.28;5.25;;;;;;;;;;5083231;28;20550;-66
2023/09/12 11:19:49;;;;;;;9.32;5.43;;;;;;;;;;5080697;28;20055;-64
2023/09/12 11:22:23;;;;;;;9.13;5.43;;;;;;;;;;5078094;28;20054;-66
2023/09/12 11:24:51;;;;;;;10.93;6.07;;;;;;;;;;5080075;28;20146;-65
2023/09/12 11:27:21;;;;;;;8.85;5.60;;;;;;;;;;5079242;28;20294;-64
2023/09/12 11:29:49;;;;;;;7.07;5.55;;;;;;;;;;5081371;28;20040;-65
2023/09/12 11:32:27;;;;;;;7.75;5.82;;;;;;;;;;5083792;28;20052;-64
2023/09/12 11:34:57;;;;;;;7.05;5.20;;;;;;;;;;5082104;28;20056;-65
2023/09/12 11:37:26;;;;;;;9.25;5.13;;;;;;;;;;5081907;28;20090;-66
2023/09/12 11:39:57;;;;;;;7.30;5.50;;;;;;;;;;5081690;28;20095;-72
2023/09/12 11:42:26;;;;;;;7.25;5.32;;;;;;;;;;5081484;28;20140;-72
2023/09/12 11:44:55;;;;;;;6.38;5.10;;;;;;;;;;5080173;28;20114;-65
2023/09/12 11:47:24;;;;;;;11.07;5.32;;;;;;;;;;5082395;28;20045;-64
2023/09/12 11:49:53;;;;;;;9.45;5.65;;;;;;;;;;5079127;28;20386;-72
2023/09/12 11:52:23;;;;;;;6.40;5.25;;;;;;;;;;5077572;28;20532;-64
2023/09/12 11:54:53;;;;;;;8.27;5.50;;;;;;;;;;5084959;28;20617;-67
2023/09/12 11:57:22;;;;;;;6.80;5.30;;;;;;;;;;5083253;28;20048;-65
2023/09/12 11:59:51;;;;;;;11.20;5.50;;;;;;;;;;5079883;28;20139;-66
2023/09/12 12:02:20;;;;;;;11.13;6.25;;;;;;;;;;5081935;28;20060;-70
2023/09/12 12:04:48;;;;;;;8.20;5.50;;;;;;;;;;5080043;28;20104;-65
2023/09/12 12:07:17;;;;;;;7.32;5.05;;;;;;;;;;5084863;28;20052;-72
2023/09/12 12:09:47;;;;;;;9.23;5.15;;;;;;;;;;5082225;28;20116;-67
2023/09/12 12:12:16;;;;;;;8.70;6.18;;;;;;;;;;5081459;28;20032;-66
2023/09/12 12:14:45;;;;;;;6.57;4.90;;;;;;;;;;5083536;28;20044;-66
2023/09/12 12:17:14;;;;;;;7.88;4.57;;;;;;;;;;5078035;28;20131;-65
2023/09/12 12:19:46;;;;;;;9.85;5.60;;;;;;;;;;5081697;28;20047;-64
2023/09/12 12:22:14;;;;;;;8.10;5.70;;;;;;;;;;5085008;28;20545;-65
2023/09/12 12:24:43;;;;;;;8.57;5.40;;;;;;;;;;5080138;28;20097;-67
2023/09/12 12:27:16;;;;;;;10.65;5.43;;;;;;;;;;5078278;28;20129;-64
2023/09/12 12:29:44;;;;;;;6.43;5.18;;;;;;;;;;5077471;28;20040;-66
2023/09/12 12:32:17;;;;;;;8.95;5.38;;;;;;;;;;5079170;28;20048;-65
2023/09/12 12:34:49;;;;;;;6.60;5.10;;;;;;;;;;5074944;28;20059;-65
2023/09/12 12:37:38;;;;;;;9.18;5.10;;;;;;;;;;5080073;28;20574;-67
2023/09/12 12:40:07;;;;;;;8.63;5.32;;;;;;;;;;5077967;28;20043;-70
2023/09/12 12:42:41;;;;;;;8.68;5.75;;;;;;;;;;5080630;28;20073;-66
2023/09/12 12:45:23;;;;;;;8.77;5.30;;;;;;;;;;5079037;28;20507;-66
2023/09/12 12:47:52;;;;;;;6.55;4.82;;;;;;;;;;5074444;28;20057;-65
2023/09/12 12:50:22;;;;;;;7.68;5.28;;;;;;;;;;5076101;28;20051;-65
2023/09/12 12:52:50;;;;;;;7.80;5.15;;;;;;;;;;5071112;28;20036;-65
2023/09/12 12:55:19;;;;;;;8.18;5.18;;;;;;;;;;5078663;28;20786;-67
2023/09/12 12:57:49;;;;;;;6.95;5.10;;;;;;;;;;5077253;28;20075;-67
2023/09/12 13:00:19;;;;;;;7.38;5.60;;;;;;;;;;5073259;28;20497;-70
2023/09/12 13:02:47;;;;;;;9.02;5.28;;;;;;;;;;5076803;28;20055;-67
2023/09/12 13:05:22;;;;;;;7.85;5.43;;;;;;;;;;5068910;28;20131;-64
2023/09/12 13:07:52;;;;;;;8.45;5.47;;;;;;;;;;5079117;28;20252;-67
2023/09/12 13:10:20;;;;;;;7.30;5.03;;;;;;;;;;5081220;28;20058;-65
2023/09/12 13:12:50;;;;;;;8.52;5.38;;;;;;;;;;5082184;28;20051;-64
2023/09/12 13:15:19;;;;;;;6.95;5.40;;;;;;;;;;5079824;28;20135;-72
2023/09/12 13:17:48;;;;;;;9.07;6.18;;;;;;;;;;5075819;28;20412;-66
2023/09/12 13:20:17;;;;;;;8.20;5.40;;;;;;;;;;5075572;28;20172;-70
2023/09/12 13:22:46;;;;;;;6.95;5.50;;;;;;;;;;5081372;28;20055;-65
2023/09/12 13:25:15;;;;;;;9.02;5.80;;;;;;;;;;5074840;28;20052;-66
2023/09/12 13:27:43;;;;;;;7.25;5.75;;;;;;;;;;5081327;28;20094;-67
2023/09/12 13:30:13;;;;;;;8.07;5.28;;;;;;;;;;5075706;28;20036;-65
2023/09/12 13:32:42;;;;;;;7.18;5.43;;;;;;;;;;5083054;28;20127;-65
2023/09/12 13:35:10;;;;;;;10.30;5.53;;;;;;;;;;5080441;28;20159;-68
2023/09/12 13:37:39;;;;;;;10.57;5.15;;;;;;;;;;5079878;28;20109;-64
2023/09/12 13:40:08;;;;;;;9.05;5.25;;;;;;;;;;5081945;28;20321;-64
2023/09/12 13:42:37;;;;;;;8.55;4.82;;;;;;;;;;5084046;28;20139;-65
2023/09/12 13:45:06;;;;;;;7.95;5.13;;;;;;;;;;5082362;28;20051;-67
2023/09/12 13:47:36;;;;;;;6.88;5.22;;;;;;;;;;5083276;28;20048;-65
2023/09/12 13:50:04;;;;;;;8.77;5.80;;;;;;;;;;5084483;28;20503;-65
2023/09/12 13:52:33;;;;;;;7.75;5.43;;;;;;;;;;5081759;28;20103;-65
2023/09/12 13:55:03;;;;;;;7.15;5.13;;;;;;;;;;5089466;28;20048;-65
2023/09/12 13:57:32;;;;;;;6.45;4.90;;;;;;;;;;5084732;28;20040;-71
2023/09/12 14:00:07;;;;;;;8.48;5.07;;;;;;;;;;5078757;28;20056;-71
2023/09/12 14:02:37;;;;;;;7.45;5.70;;;;;;;;;;5087046;28;20239;-64
2023/09/12 14:05:06;;;;;;;7.97;5.00;;;;;;;;;;5086408;28;20450;-64
2023/09/12 14:07:41;;;;;;;6.05;5.03;;;;;;;;;;5081037;28;20044;-66
2023/09/12 14:10:10;;;;;;;10.32;5.60;;;;;;;;;;5083547;28;20091;-65
2023/09/12 14:12:50;;;;;;;9.32;5.60;;;;;;;;;;5082712;28;20086;-65
2023/09/12 14:15:19;;;;;;;9.05;5.00;;;;;;;;;;5085795;28;20493;-65
2023/09/12 14:17:49;;;;;;;9.00;5.28;;;;;;;;;;5082622;28;20393;-64
2023/09/12 14:20:24;;;;;;;10.02;5.05;;;;;;;;;;5079252;28;20354;-65
2023/09/12 14:22:53;;;;;;;8.98;5.32;;;;;;;;;;5087844;28;20102;-65
2023/09/12 14:25:21;;;;;;;9.77;5.90;;;;;;;;;;5082411;28;20121;-65
2023/09/12 14:27:51;;;;;;;9.95;5.57;;;;;;;;;;5082923;28;20067;-68
2023/09/12 14:30:20;;;;;;;10.48;7.57;;;;;;;;;;5086226;28;20070;-64
2023/09/12 14:32:50;;;;;;;9.50;5.30;;;;;;;;;;5081347;28;20507;-66
2023/09/12 14:35:19;;;;;;;7.50;5.30;;;;;;;;;;5087348;28;20052;-65
2023/09/12 14:37:49;;;;;;;7.35;5.25;;;;;;;;;;5085388;28;20514;-65
2023/09/12 14:40:17;;;;;;;7.35;5.38;;;;;;;;;;5085129;28;20497;-65
2023/09/12 14:42:46;;;;;;;8.10;5.25;;;;;;;;;;5082470;28;20105;-64
2023/09/12 14:45:15;;;;;;;8.10;5.90;;;;;;;;;;5086391;28;20048;-65
2023/09/12 14:47:44;;;;;;;7.95;5.15;;;;;;;;;;5077357;28;20125;-66